Aerbrava en el facebook Aerbrava en el twitter Aerbrava Google+ Aerbrava instagram Aerbrava en el youtube Aerbrava tumblr Aerbrava flikr Aerbrava pinterest
aerbrava en catal&agà Aerbrava in English
Escuela de Pilotos
Teléfono 972234126 972 23 41 26
 
aerbrava en català Aerbrava in English
Aerbrava - Meteorología

Información meteorológica aeronáutica

 

En este apartado aparece la información meteorológica aeronáutica que es utilizada en las prácticas de los alumnos de la Escuela de Pilotos de nuestro centro durante su formación, por lo que puede no ser actual y se debería utilizar por su propia cuenta y riesgo. AERBRAVA no se hace responsable de su uso.

 

TIEMPO ACTUAL

Satélite Meteorológico

sat24.com

Servei Meteorològic de Catalunya

 

LEGE 300430Z 35004KT 9999 BKN055 09/07 Q1013
LEGE 300400Z VRB01KT 9999 BKN055 09/07 Q1013
LEGE 300330Z VRB02KT 9999 BKN055 09/08 Q1013
LEGE 300300Z 32002KT 9999 BKN060 09/08 Q1013
LEGE 300230Z VRB02KT 9999 BKN060 09/08 Q1014
LEGE 300200Z 03004KT 010V070 9999 BKN060 09/08 Q1013
LEGE 300130Z 04007KT 9999 BKN060 10/08 Q1014
LEGE 300100Z 05007KT 9999 BKN060 10/08 Q1014
TAF LEGE 292300Z 3000/3024 03004KT 9999 BKN050 TX12/3013Z TN05/3006Z   PROB30   TEMPO 3000/3018 SHRA FEW040TCU   TEMPO 3006/3012 02010KT

Aviation Weather

 
Aerbrava en el facebook Aerbrava en el twitter Aerbrava Google+ Aerbrava instagram Aerbrava en el youtube Aerbrava tumblr Aerbrava flikr Aerbrava pinterest

¡CSS Vàlid!